sensor_id;sensor_type;location;lat;lon;timestamp;temperature;humidity
8436;DHT22;4255;48.730;9.156;2023-12-29T00:02:01;9.70;99.90
8436;DHT22;4255;48.730;9.156;2023-12-29T00:04:27;9.80;99.90
8436;DHT22;4255;48.730;9.156;2023-12-29T00:06:53;10.00;99.90
8436;DHT22;4255;48.730;9.156;2023-12-29T00:09:18;10.00;99.90
8436;DHT22;4255;48.730;9.156;2023-12-29T00:11:47;10.20;99.90
8436;DHT22;4255;48.730;9.156;2023-12-29T00:14:12;10.10;99.90
8436;DHT22;4255;48.730;9.156;2023-12-29T00:16:38;10.00;99.90
8436;DHT22;4255;48.730;9.156;2023-12-29T00:19:04;9.90;99.90
8436;DHT22;4255;48.730;9.156;2023-12-29T00:21:29;9.90;99.90
8436;DHT22;4255;48.730;9.156;2023-12-29T00:23:55;10.00;99.90
8436;DHT22;4255;48.730;9.156;2023-12-29T00:26:21;10.00;99.90
8436;DHT22;4255;48.730;9.156;2023-12-29T00:28:47;9.90;99.90
8436;DHT22;4255;48.730;9.156;2023-12-29T00:31:15;10.00;99.90
8436;DHT22;4255;48.730;9.156;2023-12-29T00:33:44;9.90;99.90
8436;DHT22;4255;48.730;9.156;2023-12-29T00:36:17;9.80;99.90
8436;DHT22;4255;48.730;9.156;2023-12-29T00:38:43;9.90;99.90
8436;DHT22;4255;48.730;9.156;2023-12-29T00:41:09;9.90;99.90
8436;DHT22;4255;48.730;9.156;2023-12-29T00:43:34;9.90;99.90
8436;DHT22;4255;48.730;9.156;2023-12-29T00:46:07;10.00;99.90
8436;DHT22;4255;48.730;9.156;2023-12-29T00:48:34;9.90;99.90
8436;DHT22;4255;48.730;9.156;2023-12-29T00:51:03;9.90;99.90
8436;DHT22;4255;48.730;9.156;2023-12-29T00:53:29;9.90;99.90
8436;DHT22;4255;48.730;9.156;2023-12-29T00:56:02;10.00;99.90
8436;DHT22;4255;48.730;9.156;2023-12-29T00:58:28;10.00;99.90
8436;DHT22;4255;48.730;9.156;2023-12-29T01:00:54;10.00;99.90
8436;DHT22;4255;48.730;9.156;2023-12-29T01:03:20;9.90;99.90
8436;DHT22;4255;48.730;9.156;2023-12-29T01:05:45;10.00;99.90
8436;DHT22;4255;48.730;9.156;2023-12-29T01:08:11;10.00;99.90
8436;DHT22;4255;48.730;9.156;2023-12-29T01:10:37;10.10;99.90
8436;DHT22;4255;48.730;9.156;2023-12-29T01:13:03;10.10;99.90
8436;DHT22;4255;48.730;9.156;2023-12-29T01:15:29;10.20;99.90
8436;DHT22;4255;48.730;9.156;2023-12-29T01:17:54;10.10;99.90
8436;DHT22;4255;48.730;9.156;2023-12-29T01:20:20;10.20;99.40
8436;DHT22;4255;48.730;9.156;2023-12-29T01:22:45;10.10;69.40
8436;DHT22;4255;48.730;9.156;2023-12-29T01:25:11;10.20;83.60
8436;DHT22;4255;48.730;9.156;2023-12-29T01:27:36;10.20;61.10
8436;DHT22;4255;48.730;9.156;2023-12-29T01:30:02;10.10;50.50
8436;DHT22;4255;48.730;9.156;2023-12-29T01:32:28;10.00;86.30
8436;DHT22;4255;48.730;9.156;2023-12-29T01:34:53;10.00;93.00
8436;DHT22;4255;48.730;9.156;2023-12-29T01:37:19;9.90;95.00
8436;DHT22;4255;48.730;9.156;2023-12-29T01:39:45;10.00;99.90
8436;DHT22;4255;48.730;9.156;2023-12-29T01:42:10;10.10;98.90
8436;DHT22;4255;48.730;9.156;2023-12-29T01:44:36;10.00;93.90
8436;DHT22;4255;48.730;9.156;2023-12-29T01:47:03;9.90;99.90
8436;DHT22;4255;48.730;9.156;2023-12-29T01:49:33;9.90;99.90
8436;DHT22;4255;48.730;9.156;2023-12-29T01:52:00;10.00;99.90
8436;DHT22;4255;48.730;9.156;2023-12-29T01:54:31;10.00;92.20
8436;DHT22;4255;48.730;9.156;2023-12-29T01:56:59;10.00;93.30
8436;DHT22;4255;48.730;9.156;2023-12-29T01:59:27;9.90;99.90
8436;DHT22;4255;48.730;9.156;2023-12-29T02:01:54;9.90;99.50
8436;DHT22;4255;48.730;9.156;2023-12-29T02:04:24;9.90;99.90
8436;DHT22;4255;48.730;9.156;2023-12-29T02:06:51;9.70;99.90
8436;DHT22;4255;48.730;9.156;2023-12-29T02:09:17;9.80;99.90
8436;DHT22;4255;48.730;9.156;2023-12-29T02:11:43;9.70;99.90
8436;DHT22;4255;48.730;9.156;2023-12-29T02:14:09;9.80;99.90
8436;DHT22;4255;48.730;9.156;2023-12-29T02:19:44;9.80;99.90
8436;DHT22;4255;48.730;9.156;2023-12-29T02:22:11;9.90;99.90
8436;DHT22;4255;48.730;9.156;2023-12-29T02:24:37;9.80;99.90
8436;DHT22;4255;48.730;9.156;2023-12-29T02:29:33;9.90;99.90
8436;DHT22;4255;48.730;9.156;2023-12-29T02:31:59;9.80;99.90
8436;DHT22;4255;48.730;9.156;2023-12-29T02:34:28;9.80;99.90
8436;DHT22;4255;48.730;9.156;2023-12-29T02:36:56;9.80;99.90
8436;DHT22;4255;48.730;9.156;2023-12-29T02:39:24;9.80;99.90
8436;DHT22;4255;48.730;9.156;2023-12-29T02:41:49;9.70;99.90
8436;DHT22;4255;48.730;9.156;2023-12-29T02:44:15;9.70;99.90
8436;DHT22;4255;48.730;9.156;2023-12-29T02:46:41;9.80;99.90
8436;DHT22;4255;48.730;9.156;2023-12-29T02:49:06;9.70;99.90
8436;DHT22;4255;48.730;9.156;2023-12-29T02:51:36;9.70;99.90
8436;DHT22;4255;48.730;9.156;2023-12-29T02:54:05;9.80;99.90
8436;DHT22;4255;48.730;9.156;2023-12-29T02:56:33;9.70;99.90
8436;DHT22;4255;48.730;9.156;2023-12-29T02:58:58;9.70;99.90
8436;DHT22;4255;48.730;9.156;2023-12-29T03:01:24;9.60;99.90
8436;DHT22;4255;48.730;9.156;2023-12-29T03:03:49;9.60;99.90
8436;DHT22;4255;48.730;9.156;2023-12-29T03:06:15;9.50;99.90
8436;DHT22;4255;48.730;9.156;2023-12-29T03:08:40;9.50;99.90
8436;DHT22;4255;48.730;9.156;2023-12-29T03:11:06;9.50;99.90
8436;DHT22;4255;48.730;9.156;2023-12-29T03:13:32;9.50;99.90
8436;DHT22;4255;48.730;9.156;2023-12-29T03:15:57;9.50;99.90
8436;DHT22;4255;48.730;9.156;2023-12-29T03:18:23;9.60;99.90
8436;DHT22;4255;48.730;9.156;2023-12-29T03:20:49;9.50;99.90
8436;DHT22;4255;48.730;9.156;2023-12-29T03:23:14;9.60;99.90
8436;DHT22;4255;48.730;9.156;2023-12-29T03:25:40;9.60;99.90
8436;DHT22;4255;48.730;9.156;2023-12-29T03:28:05;9.50;99.90
8436;DHT22;4255;48.730;9.156;2023-12-29T03:30:31;9.50;99.90
8436;DHT22;4255;48.730;9.156;2023-12-29T03:32:57;9.50;99.90
8436;DHT22;4255;48.730;9.156;2023-12-29T03:35:22;9.40;99.90
8436;DHT22;4255;48.730;9.156;2023-12-29T03:37:48;9.40;99.90
8436;DHT22;4255;48.730;9.156;2023-12-29T03:40:13;9.50;99.90
8436;DHT22;4255;48.730;9.156;2023-12-29T03:42:40;9.60;99.90
8436;DHT22;4255;48.730;9.156;2023-12-29T03:45:06;9.60;99.90
8436;DHT22;4255;48.730;9.156;2023-12-29T03:47:31;9.50;99.90
8436;DHT22;4255;48.730;9.156;2023-12-29T03:49:57;9.60;99.90
8436;DHT22;4255;48.730;9.156;2023-12-29T03:52:23;9.60;99.90
8436;DHT22;4255;48.730;9.156;2023-12-29T03:54:48;9.50;99.90
8436;DHT22;4255;48.730;9.156;2023-12-29T03:57:14;9.30;99.90
8436;DHT22;4255;48.730;9.156;2023-12-29T03:59:40;9.40;99.90
8436;DHT22;4255;48.730;9.156;2023-12-29T04:02:06;9.30;99.90
8436;DHT22;4255;48.730;9.156;2023-12-29T04:04:31;9.30;99.90
8436;DHT22;4255;48.730;9.156;2023-12-29T04:06:57;9.10;99.90
8436;DHT22;4255;48.730;9.156;2023-12-29T04:09:23;9.10;99.90
8436;DHT22;4255;48.730;9.156;2023-12-29T04:11:48;9.10;99.90
8436;DHT22;4255;48.730;9.156;2023-12-29T04:14:14;9.10;99.90
8436;DHT22;4255;48.730;9.156;2023-12-29T04:16:40;9.20;99.90
8436;DHT22;4255;48.730;9.156;2023-12-29T04:19:05;9.20;99.90
8436;DHT22;4255;48.730;9.156;2023-12-29T04:21:31;9.20;99.90
8436;DHT22;4255;48.730;9.156;2023-12-29T04:23:57;9.10;99.90
8436;DHT22;4255;48.730;9.156;2023-12-29T04:26:22;9.10;99.90
8436;DHT22;4255;48.730;9.156;2023-12-29T04:28:51;9.00;99.90
8436;DHT22;4255;48.730;9.156;2023-12-29T04:31:16;9.00;99.90
8436;DHT22;4255;48.730;9.156;2023-12-29T04:33:42;9.10;99.90
8436;DHT22;4255;48.730;9.156;2023-12-29T04:36:07;9.20;99.90
8436;DHT22;4255;48.730;9.156;2023-12-29T04:38:33;9.20;99.90
8436;DHT22;4255;48.730;9.156;2023-12-29T04:40:59;9.20;99.90
8436;DHT22;4255;48.730;9.156;2023-12-29T04:43:24;9.30;99.90
8436;DHT22;4255;48.730;9.156;2023-12-29T04:45:50;9.20;99.90
8436;DHT22;4255;48.730;9.156;2023-12-29T04:48:15;9.20;99.90
8436;DHT22;4255;48.730;9.156;2023-12-29T04:50:41;9.20;99.90
8436;DHT22;4255;48.730;9.156;2023-12-29T04:53:07;9.20;99.90
8436;DHT22;4255;48.730;9.156;2023-12-29T04:55:32;9.40;99.90
8436;DHT22;4255;48.730;9.156;2023-12-29T04:57:58;9.30;99.90
8436;DHT22;4255;48.730;9.156;2023-12-29T05:00:23;9.30;99.90
8436;DHT22;4255;48.730;9.156;2023-12-29T05:02:49;9.30;99.90
8436;DHT22;4255;48.730;9.156;2023-12-29T05:05:14;9.40;99.90
8436;DHT22;4255;48.730;9.156;2023-12-29T05:07:40;9.40;99.90
8436;DHT22;4255;48.730;9.156;2023-12-29T05:10:06;9.50;99.90
8436;DHT22;4255;48.730;9.156;2023-12-29T05:12:32;9.60;99.90
8436;DHT22;4255;48.730;9.156;2023-12-29T05:14:58;9.70;99.90
8436;DHT22;4255;48.730;9.156;2023-12-29T05:17:23;9.60;99.90
8436;DHT22;4255;48.730;9.156;2023-12-29T05:19:49;9.50;99.90
8436;DHT22;4255;48.730;9.156;2023-12-29T05:22:15;9.60;99.90
8436;DHT22;4255;48.730;9.156;2023-12-29T05:24:43;9.60;99.90
8436;DHT22;4255;48.730;9.156;2023-12-29T05:27:09;9.60;99.90
8436;DHT22;4255;48.730;9.156;2023-12-29T05:29:35;9.70;99.90
8436;DHT22;4255;48.730;9.156;2023-12-29T05:32:00;9.70;99.90
8436;DHT22;4255;48.730;9.156;2023-12-29T05:34:28;9.60;99.90
8436;DHT22;4255;48.730;9.156;2023-12-29T05:36:53;9.70;99.90
8436;DHT22;4255;48.730;9.156;2023-12-29T05:39:22;9.80;99.90
8436;DHT22;4255;48.730;9.156;2023-12-29T05:41:48;9.70;99.90
8436;DHT22;4255;48.730;9.156;2023-12-29T05:44:13;9.50;99.90
8436;DHT22;4255;48.730;9.156;2023-12-29T05:46:39;9.60;99.90
8436;DHT22;4255;48.730;9.156;2023-12-29T05:49:04;9.70;99.90
8436;DHT22;4255;48.730;9.156;2023-12-29T05:51:30;9.60;99.90
8436;DHT22;4255;48.730;9.156;2023-12-29T05:53:56;9.60;99.90
8436;DHT22;4255;48.730;9.156;2023-12-29T05:56:21;9.70;99.90
8436;DHT22;4255;48.730;9.156;2023-12-29T05:58:47;9.60;99.90
8436;DHT22;4255;48.730;9.156;2023-12-29T06:01:12;9.60;99.90
8436;DHT22;4255;48.730;9.156;2023-12-29T06:03:38;9.50;99.90
8436;DHT22;4255;48.730;9.156;2023-12-29T06:06:04;9.60;99.90
8436;DHT22;4255;48.730;9.156;2023-12-29T06:08:30;9.60;99.90
8436;DHT22;4255;48.730;9.156;2023-12-29T06:10:55;9.50;99.90
8436;DHT22;4255;48.730;9.156;2023-12-29T06:13:22;9.50;99.90
8436;DHT22;4255;48.730;9.156;2023-12-29T06:15:48;9.50;99.90
8436;DHT22;4255;48.730;9.156;2023-12-29T06:18:14;9.50;99.90
8436;DHT22;4255;48.730;9.156;2023-12-29T06:20:40;9.50;99.90
8436;DHT22;4255;48.730;9.156;2023-12-29T06:23:05;9.50;99.90
8436;DHT22;4255;48.730;9.156;2023-12-29T06:25:31;9.40;99.90
8436;DHT22;4255;48.730;9.156;2023-12-29T06:28:02;9.30;99.90
8436;DHT22;4255;48.730;9.156;2023-12-29T06:30:31;9.30;99.90
8436;DHT22;4255;48.730;9.156;2023-12-29T06:32:57;9.40;99.90
8436;DHT22;4255;48.730;9.156;2023-12-29T06:35:23;9.40;99.90
8436;DHT22;4255;48.730;9.156;2023-12-29T06:37:49;9.40;99.90
8436;DHT22;4255;48.730;9.156;2023-12-29T06:40:16;9.40;99.90
8436;DHT22;4255;48.730;9.156;2023-12-29T06:42:42;9.50;99.90
8436;DHT22;4255;48.730;9.156;2023-12-29T06:45:08;9.40;99.90
8436;DHT22;4255;48.730;9.156;2023-12-29T06:47:33;9.40;99.90
8436;DHT22;4255;48.730;9.156;2023-12-29T06:49:59;9.40;99.90
8436;DHT22;4255;48.730;9.156;2023-12-29T06:52:25;9.60;99.90
8436;DHT22;4255;48.730;9.156;2023-12-29T06:54:52;9.60;99.90
8436;DHT22;4255;48.730;9.156;2023-12-29T06:57:17;9.60;99.90
8436;DHT22;4255;48.730;9.156;2023-12-29T06:59:43;9.50;99.90
8436;DHT22;4255;48.730;9.156;2023-12-29T07:02:08;9.40;99.90
8436;DHT22;4255;48.730;9.156;2023-12-29T07:04:34;9.40;99.90
8436;DHT22;4255;48.730;9.156;2023-12-29T07:07:00;9.40;99.90
8436;DHT22;4255;48.730;9.156;2023-12-29T07:09:27;9.40;99.90
8436;DHT22;4255;48.730;9.156;2023-12-29T07:11:52;9.50;99.90
8436;DHT22;4255;48.730;9.156;2023-12-29T07:14:18;9.50;99.90
8436;DHT22;4255;48.730;9.156;2023-12-29T07:16:44;9.60;99.90
8436;DHT22;4255;48.730;9.156;2023-12-29T07:19:10;9.50;99.90
8436;DHT22;4255;48.730;9.156;2023-12-29T07:21:35;9.40;99.90
8436;DHT22;4255;48.730;9.156;2023-12-29T07:24:01;9.50;99.90
8436;DHT22;4255;48.730;9.156;2023-12-29T07:26:27;9.50;99.90
8436;DHT22;4255;48.730;9.156;2023-12-29T07:28:53;9.60;99.90
8436;DHT22;4255;48.730;9.156;2023-12-29T07:31:20;9.70;99.90
8436;DHT22;4255;48.730;9.156;2023-12-29T07:33:46;9.70;99.90
8436;DHT22;4255;48.730;9.156;2023-12-29T07:36:12;9.70;99.90
8436;DHT22;4255;48.730;9.156;2023-12-29T07:38:38;9.70;99.90
8436;DHT22;4255;48.730;9.156;2023-12-29T07:41:03;9.80;99.90
8436;DHT22;4255;48.730;9.156;2023-12-29T07:43:30;9.90;99.90
8436;DHT22;4255;48.730;9.156;2023-12-29T07:45:56;10.00;99.90
8436;DHT22;4255;48.730;9.156;2023-12-29T07:48:21;10.00;99.90
8436;DHT22;4255;48.730;9.156;2023-12-29T07:50:47;10.00;99.90
8436;DHT22;4255;48.730;9.156;2023-12-29T07:53:12;9.90;99.90
8436;DHT22;4255;48.730;9.156;2023-12-29T07:55:38;9.80;99.90
8436;DHT22;4255;48.730;9.156;2023-12-29T07:58:05;9.90;99.90
8436;DHT22;4255;48.730;9.156;2023-12-29T08:00:30;9.90;99.90
8436;DHT22;4255;48.730;9.156;2023-12-29T08:02:56;10.10;99.90
8436;DHT22;4255;48.730;9.156;2023-12-29T08:05:27;10.10;99.90
8436;DHT22;4255;48.730;9.156;2023-12-29T08:07:53;10.20;99.90
8436;DHT22;4255;48.730;9.156;2023-12-29T08:10:20;10.20;99.90
8436;DHT22;4255;48.730;9.156;2023-12-29T08:12:46;10.30;99.90
8436;DHT22;4255;48.730;9.156;2023-12-29T08:15:11;10.30;99.90
8436;DHT22;4255;48.730;9.156;2023-12-29T08:17:37;10.30;99.90
8436;DHT22;4255;48.730;9.156;2023-12-29T08:20:06;10.10;99.90
8436;DHT22;4255;48.730;9.156;2023-12-29T08:22:32;10.10;99.90
8436;DHT22;4255;48.730;9.156;2023-12-29T08:24:58;10.00;99.90
8436;DHT22;4255;48.730;9.156;2023-12-29T08:27:24;10.00;99.90
8436;DHT22;4255;48.730;9.156;2023-12-29T08:29:56;10.10;99.90
8436;DHT22;4255;48.730;9.156;2023-12-29T08:32:22;10.10;99.90
8436;DHT22;4255;48.730;9.156;2023-12-29T08:34:47;10.10;99.90
8436;DHT22;4255;48.730;9.156;2023-12-29T08:37:13;10.10;99.90
8436;DHT22;4255;48.730;9.156;2023-12-29T08:39:47;10.10;99.90
8436;DHT22;4255;48.730;9.156;2023-12-29T08:42:14;10.00;99.90
8436;DHT22;4255;48.730;9.156;2023-12-29T08:44:39;10.00;99.90
8436;DHT22;4255;48.730;9.156;2023-12-29T08:47:05;10.10;99.90
8436;DHT22;4255;48.730;9.156;2023-12-29T08:49:34;10.00;99.90
8436;DHT22;4255;48.730;9.156;2023-12-29T08:52:00;10.00;99.90
8436;DHT22;4255;48.730;9.156;2023-12-29T08:54:26;10.10;99.90
8436;DHT22;4255;48.730;9.156;2023-12-29T08:56:51;10.30;99.90
8436;DHT22;4255;48.730;9.156;2023-12-29T08:59:17;10.30;99.90
8436;DHT22;4255;48.730;9.156;2023-12-29T09:01:42;10.30;99.90
8436;DHT22;4255;48.730;9.156;2023-12-29T09:04:08;10.40;99.90
8436;DHT22;4255;48.730;9.156;2023-12-29T09:06:33;10.40;99.90
8436;DHT22;4255;48.730;9.156;2023-12-29T09:09:00;10.40;99.90
8436;DHT22;4255;48.730;9.156;2023-12-29T09:11:25;10.30;99.90
8436;DHT22;4255;48.730;9.156;2023-12-29T09:13:52;10.20;99.90
8436;DHT22;4255;48.730;9.156;2023-12-29T09:16:17;10.20;99.90
8436;DHT22;4255;48.730;9.156;2023-12-29T09:18:43;10.20;99.90
8436;DHT22;4255;48.730;9.156;2023-12-29T09:21:09;10.20;99.90
8436;DHT22;4255;48.730;9.156;2023-12-29T09:23:34;10.20;99.90
8436;DHT22;4255;48.730;9.156;2023-12-29T09:26:02;10.30;99.90
8436;DHT22;4255;48.730;9.156;2023-12-29T09:28:28;10.30;99.90
8436;DHT22;4255;48.730;9.156;2023-12-29T09:30:54;10.20;99.90
8436;DHT22;4255;48.730;9.156;2023-12-29T09:33:19;10.50;99.90
8436;DHT22;4255;48.730;9.156;2023-12-29T09:35:45;10.50;99.90
8436;DHT22;4255;48.730;9.156;2023-12-29T09:38:10;10.50;99.90
8436;DHT22;4255;48.730;9.156;2023-12-29T09:40:36;10.40;99.90
8436;DHT22;4255;48.730;9.156;2023-12-29T09:43:03;10.50;99.90
8436;DHT22;4255;48.730;9.156;2023-12-29T09:45:30;10.50;99.90
8436;DHT22;4255;48.730;9.156;2023-12-29T09:47:56;10.50;99.90
8436;DHT22;4255;48.730;9.156;2023-12-29T09:50:24;10.60;99.90
8436;DHT22;4255;48.730;9.156;2023-12-29T09:52:52;10.60;99.90
8436;DHT22;4255;48.730;9.156;2023-12-29T09:55:18;10.70;99.90
8436;DHT22;4255;48.730;9.156;2023-12-29T09:57:47;10.80;99.90
8436;DHT22;4255;48.730;9.156;2023-12-29T10:00:15;10.70;99.90
8436;DHT22;4255;48.730;9.156;2023-12-29T10:02:42;10.80;99.90
8436;DHT22;4255;48.730;9.156;2023-12-29T10:05:10;10.80;99.90
8436;DHT22;4255;48.730;9.156;2023-12-29T10:07:37;10.70;99.90
8436;DHT22;4255;48.730;9.156;2023-12-29T10:10:04;10.70;99.90
8436;DHT22;4255;48.730;9.156;2023-12-29T10:12:31;10.70;99.90
8436;DHT22;4255;48.730;9.156;2023-12-29T10:15:06;10.70;99.90
8436;DHT22;4255;48.730;9.156;2023-12-29T10:21:05;10.80;99.90
8436;DHT22;4255;48.730;9.156;2023-12-29T10:23:20;10.80;99.90
8436;DHT22;4255;48.730;9.156;2023-12-29T10:25:48;10.90;99.90
8436;DHT22;4255;48.730;9.156;2023-12-29T10:28:14;11.10;99.90
8436;DHT22;4255;48.730;9.156;2023-12-29T10:30:41;11.00;99.90
8436;DHT22;4255;48.730;9.156;2023-12-29T10:33:06;11.20;99.90
8436;DHT22;4255;48.730;9.156;2023-12-29T10:35:32;11.30;99.90
8436;DHT22;4255;48.730;9.156;2023-12-29T10:38:10;11.30;99.90
8436;DHT22;4255;48.730;9.156;2023-12-29T10:40:36;11.20;99.90
8436;DHT22;4255;48.730;9.156;2023-12-29T10:43:02;11.30;99.90
8436;DHT22;4255;48.730;9.156;2023-12-29T10:45:33;11.30;99.90
8436;DHT22;4255;48.730;9.156;2023-12-29T10:48:00;11.50;99.90
8436;DHT22;4255;48.730;9.156;2023-12-29T10:50:26;11.60;99.90
8436;DHT22;4255;48.730;9.156;2023-12-29T10:53:10;11.70;99.90
8436;DHT22;4255;48.730;9.156;2023-12-29T10:55:36;11.80;99.90
8436;DHT22;4255;48.730;9.156;2023-12-29T10:58:02;12.00;99.90
8436;DHT22;4255;48.730;9.156;2023-12-29T11:00:30;12.30;99.90
8436;DHT22;4255;48.730;9.156;2023-12-29T11:02:58;12.40;99.90
8436;DHT22;4255;48.730;9.156;2023-12-29T11:05:26;12.30;99.90
8436;DHT22;4255;48.730;9.156;2023-12-29T11:07:54;12.20;99.90
8436;DHT22;4255;48.730;9.156;2023-12-29T11:10:21;12.00;99.90
8436;DHT22;4255;48.730;9.156;2023-12-29T11:12:49;12.00;99.90
8436;DHT22;4255;48.730;9.156;2023-12-29T11:15:15;12.10;99.90
8436;DHT22;4255;48.730;9.156;2023-12-29T11:17:43;12.00;99.90
8436;DHT22;4255;48.730;9.156;2023-12-29T11:20:27;12.20;99.90
8436;DHT22;4255;48.730;9.156;2023-12-29T11:22:53;12.40;99.90
8436;DHT22;4255;48.730;9.156;2023-12-29T11:25:19;12.30;99.90
8436;DHT22;4255;48.730;9.156;2023-12-29T11:27:45;12.40;99.90
8436;DHT22;4255;48.730;9.156;2023-12-29T11:30:11;12.30;99.90
8436;DHT22;4255;48.730;9.156;2023-12-29T11:35:24;12.40;91.70
8436;DHT22;4255;48.730;9.156;2023-12-29T11:40:23;12.50;69.60
8436;DHT22;4255;48.730;9.156;2023-12-29T11:42:56;12.30;39.80
8436;DHT22;4255;48.730;9.156;2023-12-29T11:45:33;12.40;74.20
8436;DHT22;4255;48.730;9.156;2023-12-29T11:48:05;12.20;1.00
8436;DHT22;4255;48.730;9.156;2023-12-29T11:50:35;12.10;37.70
8436;DHT22;4255;48.730;9.156;2023-12-29T11:53:02;12.10;3.60
8436;DHT22;4255;48.730;9.156;2023-12-29T11:55:30;12.20;31.60
8436;DHT22;4255;48.730;9.156;2023-12-29T11:57:57;12.40;35.80
8436;DHT22;4255;48.730;9.156;2023-12-29T12:00:44;12.40;13.60
8436;DHT22;4255;48.730;9.156;2023-12-29T12:03:30;12.40;8.20
8436;DHT22;4255;48.730;9.156;2023-12-29T12:05:59;12.50;1.00
8436;DHT22;4255;48.730;9.156;2023-12-29T12:08:35;12.60;1.00
8436;DHT22;4255;48.730;9.156;2023-12-29T12:13:55;12.80;1.00
8436;DHT22;4255;48.730;9.156;2023-12-29T12:16:46;12.70;1.00
8436;DHT22;4255;48.730;9.156;2023-12-29T12:19:13;12.70;1.00
8436;DHT22;4255;48.730;9.156;2023-12-29T12:21:39;12.50;1.00
8436;DHT22;4255;48.730;9.156;2023-12-29T12:24:07;12.50;1.00
8436;DHT22;4255;48.730;9.156;2023-12-29T12:26:33;12.40;1.00
8436;DHT22;4255;48.730;9.156;2023-12-29T12:29:00;12.50;1.00
8436;DHT22;4255;48.730;9.156;2023-12-29T12:31:26;12.70;1.00
8436;DHT22;4255;48.730;9.156;2023-12-29T12:33:59;12.80;1.00
8436;DHT22;4255;48.730;9.156;2023-12-29T12:36:28;12.80;1.00
8436;DHT22;4255;48.730;9.156;2023-12-29T12:38:57;12.70;1.00
8436;DHT22;4255;48.730;9.156;2023-12-29T12:41:24;12.90;1.00
8436;DHT22;4255;48.730;9.156;2023-12-29T12:46:49;13.10;1.00
8436;DHT22;4255;48.730;9.156;2023-12-29T12:49:19;12.90;1.00
8436;DHT22;4255;48.730;9.156;2023-12-29T12:51:45;13.00;1.00
8436;DHT22;4255;48.730;9.156;2023-12-29T12:54:11;13.20;1.00
8436;DHT22;4255;48.730;9.156;2023-12-29T12:56:43;13.20;1.00
8436;DHT22;4255;48.730;9.156;2023-12-29T12:59:10;13.30;1.00
8436;DHT22;4255;48.730;9.156;2023-12-29T13:01:37;13.40;1.00
8436;DHT22;4255;48.730;9.156;2023-12-29T13:04:04;13.60;1.00
8436;DHT22;4255;48.730;9.156;2023-12-29T13:06:33;13.70;1.00
8436;DHT22;4255;48.730;9.156;2023-12-29T13:09:00;13.30;1.00
8436;DHT22;4255;48.730;9.156;2023-12-29T13:11:28;13.50;1.00
8436;DHT22;4255;48.730;9.156;2023-12-29T13:13:53;13.80;1.00
8436;DHT22;4255;48.730;9.156;2023-12-29T13:16:37;13.80;1.00
8436;DHT22;4255;48.730;9.156;2023-12-29T13:19:23;13.80;1.00
8436;DHT22;4255;48.730;9.156;2023-12-29T13:21:54;13.50;99.90
8436;DHT22;4255;48.730;9.156;2023-12-29T13:24:24;13.20;99.90
8436;DHT22;4255;48.730;9.156;2023-12-29T13:27:07;13.00;1.00
8436;DHT22;4255;48.730;9.156;2023-12-29T13:29:35;12.80;99.90
8436;DHT22;4255;48.730;9.156;2023-12-29T13:34:46;12.50;1.00
8436;DHT22;4255;48.730;9.156;2023-12-29T13:37:18;12.60;1.00
8436;DHT22;4255;48.730;9.156;2023-12-29T13:39:59;12.50;1.00
8436;DHT22;4255;48.730;9.156;2023-12-29T13:42:30;12.50;1.00
8436;DHT22;4255;48.730;9.156;2023-12-29T13:44:59;12.40;1.00
8436;DHT22;4255;48.730;9.156;2023-12-29T13:47:26;12.40;1.00
8436;DHT22;4255;48.730;9.156;2023-12-29T13:49:52;12.50;1.00
8436;DHT22;4255;48.730;9.156;2023-12-29T13:52:18;12.50;1.00
8436;DHT22;4255;48.730;9.156;2023-12-29T13:54:46;12.40;1.00
8436;DHT22;4255;48.730;9.156;2023-12-29T13:57:12;12.20;1.00
8436;DHT22;4255;48.730;9.156;2023-12-29T13:59:38;12.20;1.00
8436;DHT22;4255;48.730;9.156;2023-12-29T14:02:26;12.30;1.00
8436;DHT22;4255;48.730;9.156;2023-12-29T14:07:46;12.70;1.00
8436;DHT22;4255;48.730;9.156;2023-12-29T14:10:13;12.60;1.00
8436;DHT22;4255;48.730;9.156;2023-12-29T14:12:38;12.60;1.00
8436;DHT22;4255;48.730;9.156;2023-12-29T14:15:05;12.60;99.90
8436;DHT22;4255;48.730;9.156;2023-12-29T14:17:31;12.80;1.00
8436;DHT22;4255;48.730;9.156;2023-12-29T14:19:58;12.90;99.90
8436;DHT22;4255;48.730;9.156;2023-12-29T14:22:29;12.80;99.90
8436;DHT22;4255;48.730;9.156;2023-12-29T14:25:03;12.80;99.90
8436;DHT22;4255;48.730;9.156;2023-12-29T14:27:29;12.50;99.90
8436;DHT22;4255;48.730;9.156;2023-12-29T14:29:56;12.70;99.90
8436;DHT22;4255;48.730;9.156;2023-12-29T14:32:22;12.80;99.90
8436;DHT22;4255;48.730;9.156;2023-12-29T14:34:48;12.70;99.90
8436;DHT22;4255;48.730;9.156;2023-12-29T14:37:19;12.60;99.90
8436;DHT22;4255;48.730;9.156;2023-12-29T14:39:51;12.60;99.90
8436;DHT22;4255;48.730;9.156;2023-12-29T14:42:16;12.50;99.90
8436;DHT22;4255;48.730;9.156;2023-12-29T14:44:45;12.40;99.90
8436;DHT22;4255;48.730;9.156;2023-12-29T14:47:10;12.30;99.90
8436;DHT22;4255;48.730;9.156;2023-12-29T14:49:37;12.40;99.90
8436;DHT22;4255;48.730;9.156;2023-12-29T14:52:03;12.40;99.90
8436;DHT22;4255;48.730;9.156;2023-12-29T14:54:28;12.40;99.90
8436;DHT22;4255;48.730;9.156;2023-12-29T14:56:54;12.30;99.90
8436;DHT22;4255;48.730;9.156;2023-12-29T14:59:20;12.30;99.90
8436;DHT22;4255;48.730;9.156;2023-12-29T15:01:46;12.40;99.90
8436;DHT22;4255;48.730;9.156;2023-12-29T15:04:11;12.40;99.90
8436;DHT22;4255;48.730;9.156;2023-12-29T15:06:39;12.50;99.90
8436;DHT22;4255;48.730;9.156;2023-12-29T15:09:05;12.50;99.90
8436;DHT22;4255;48.730;9.156;2023-12-29T15:11:33;12.50;99.90
8436;DHT22;4255;48.730;9.156;2023-12-29T15:13:58;12.70;99.90
8436;DHT22;4255;48.730;9.156;2023-12-29T15:16:24;12.60;1.00
8436;DHT22;4255;48.730;9.156;2023-12-29T15:18:49;12.50;1.00
8436;DHT22;4255;48.730;9.156;2023-12-29T15:21:15;12.50;4.80
8436;DHT22;4255;48.730;9.156;2023-12-29T15:23:40;12.50;99.90
8436;DHT22;4255;48.730;9.156;2023-12-29T15:26:06;12.50;1.00
8436;DHT22;4255;48.730;9.156;2023-12-29T15:28:32;12.50;54.60
8436;DHT22;4255;48.730;9.156;2023-12-29T15:30:57;12.50;1.00
8436;DHT22;4255;48.730;9.156;2023-12-29T15:33:23;12.20;1.00
8436;DHT22;4255;48.730;9.156;2023-12-29T15:35:50;12.00;99.90
8436;DHT22;4255;48.730;9.156;2023-12-29T15:38:16;11.90;99.90
8436;DHT22;4255;48.730;9.156;2023-12-29T15:40:42;11.90;99.90
8436;DHT22;4255;48.730;9.156;2023-12-29T15:43:07;11.80;99.90
8436;DHT22;4255;48.730;9.156;2023-12-29T15:45:33;11.90;99.90
8436;DHT22;4255;48.730;9.156;2023-12-29T15:48:00;11.80;22.80
8436;DHT22;4255;48.730;9.156;2023-12-29T15:50:25;11.70;1.00
8436;DHT22;4255;48.730;9.156;2023-12-29T15:52:51;11.50;1.00
8436;DHT22;4255;48.730;9.156;2023-12-29T15:55:18;11.40;37.20
8436;DHT22;4255;48.730;9.156;2023-12-29T15:57:43;11.40;99.90
8436;DHT22;4255;48.730;9.156;2023-12-29T16:00:10;11.50;99.90
8436;DHT22;4255;48.730;9.156;2023-12-29T16:02:39;11.40;1.00
8436;DHT22;4255;48.730;9.156;2023-12-29T16:05:04;11.40;1.00
8436;DHT22;4255;48.730;9.156;2023-12-29T16:07:30;11.40;1.00
8436;DHT22;4255;48.730;9.156;2023-12-29T16:09:56;11.30;1.00
8436;DHT22;4255;48.730;9.156;2023-12-29T16:12:22;11.40;1.00
8436;DHT22;4255;48.730;9.156;2023-12-29T16:14:47;11.30;1.00
8436;DHT22;4255;48.730;9.156;2023-12-29T16:17:13;11.30;1.00
8436;DHT22;4255;48.730;9.156;2023-12-29T16:19:38;11.30;99.90
8436;DHT22;4255;48.730;9.156;2023-12-29T16:22:04;11.20;99.90
8436;DHT22;4255;48.730;9.156;2023-12-29T16:24:30;11.10;1.00
8436;DHT22;4255;48.730;9.156;2023-12-29T16:26:55;10.90;1.00
8436;DHT22;4255;48.730;9.156;2023-12-29T16:29:21;11.00;48.20
8436;DHT22;4255;48.730;9.156;2023-12-29T16:31:47;11.10;1.00
8436;DHT22;4255;48.730;9.156;2023-12-29T16:34:12;11.10;1.00
8436;DHT22;4255;48.730;9.156;2023-12-29T16:36:38;10.90;99.90